createdAt,value
2019-03-18T00:00:33.886Z,99896.91
2019-03-18T00:01:40.086Z,99903.50
2019-03-18T00:02:46.085Z,99906.55
2019-03-18T00:03:52.645Z,99900.84
2019-03-18T00:04:59.436Z,99906.98
2019-03-18T00:06:05.603Z,99907.88
2019-03-18T00:07:12.396Z,99909.17
2019-03-18T00:08:18.855Z,99910.94
2019-03-18T00:09:25.746Z,99909.60
2019-03-18T00:10:32.766Z,99900.83
2019-03-18T00:11:38.658Z,99905.64
2019-03-18T00:12:44.561Z,99906.10
2019-03-18T00:13:50.377Z,99910.48
2019-03-18T00:15:01.038Z,99906.06
2019-03-18T00:16:03.545Z,99909.13
2019-03-18T00:17:09.494Z,99915.28
2019-03-18T00:18:15.316Z,99917.91
2019-03-18T00:19:21.047Z,99917.48
2019-03-18T00:20:29.239Z,99917.46
2019-03-18T00:21:34.967Z,99911.77
2019-03-18T00:22:41.705Z,99906.52
2019-03-18T00:23:47.516Z,99912.64
2019-03-18T00:24:54.216Z,99896.43
2019-03-18T00:26:00.429Z,99903.87
2019-03-18T00:27:06.637Z,99906.95
2019-03-18T00:28:13.507Z,99903.89
2019-03-18T00:29:20.018Z,99907.40
2019-03-18T00:30:26.287Z,99910.91
2019-03-18T00:31:33.134Z,99909.58
2019-03-18T00:32:39.459Z,99909.58
2019-03-18T00:33:46.317Z,99910.02
2019-03-18T00:34:53.327Z,99903.87
2019-03-18T00:35:59.098Z,99908.70
2019-03-18T00:37:05.118Z,99901.70
2019-03-18T00:38:11.807Z,99900.82
2019-03-18T00:39:17.828Z,99902.14
2019-03-18T00:40:24.250Z,99895.55
2019-03-18T00:41:30.235Z,99895.55
2019-03-18T00:42:36.460Z,99897.27
2019-03-18T00:43:42.278Z,99899.05
2019-03-18T00:44:48.028Z,99908.22
2019-03-18T00:45:53.809Z,99909.98
2019-03-18T00:46:59.668Z,99913.91
2019-03-18T00:48:06.437Z,99915.20
2019-03-18T00:49:12.277Z,99910.82
2019-03-18T00:50:19.098Z,99907.77
2019-03-18T00:51:24.877Z,99906.84
2019-03-18T00:52:31.498Z,99906.41
2019-03-18T00:53:37.978Z,99901.15
2019-03-18T00:54:44.195Z,99905.98
2019-03-18T00:55:52.015Z,99906.39
2019-03-18T00:56:59.161Z,99900.70
2019-03-18T00:58:05.850Z,99896.75
2019-03-18T00:59:13.068Z,99902.47
2019-03-18T01:00:20.069Z,99906.39
2019-03-18T01:01:26.639Z,99907.70
2019-03-18T01:02:33.577Z,99912.53
2019-03-18T01:03:39.668Z,99910.33
2019-03-18T01:04:46.308Z,99912.95
2019-03-18T01:05:52.829Z,99913.85
2019-03-18T01:06:59.438Z,99917.33
2019-03-18T01:08:06.362Z,99917.33
2019-03-18T01:09:12.476Z,99916.03
2019-03-18T01:10:19.062Z,99915.56
2019-03-18T01:11:26.717Z,99912.52
2019-03-18T01:12:33.660Z,99911.63
2019-03-18T01:13:39.566Z,99908.13
2019-03-18T01:14:45.308Z,99913.34
2019-03-18T01:15:52.118Z,99910.70
2019-03-18T01:16:57.849Z,99915.97
2019-03-18T01:18:04.625Z,99918.17
2019-03-18T01:19:10.479Z,99924.75
2019-03-18T01:20:16.655Z,99922.09
2019-03-18T01:21:22.382Z,99928.26
2019-03-18T01:22:28.189Z,99937.44
2019-03-18T01:23:33.958Z,99933.92
2019-03-18T01:24:40.269Z,99940.06
2019-03-18T01:25:47.741Z,99933.92
2019-03-18T01:26:54.759Z,99937.41
2019-03-18T01:28:01.080Z,99933.48
2019-03-18T01:29:07.669Z,99947.51
2019-03-18T01:30:15.970Z,99946.20
2019-03-18T01:31:23.250Z,99952.77
2019-03-18T01:32:30.159Z,99950.11
2019-03-18T01:33:37.589Z,99953.16
2019-03-18T01:34:43.979Z,99952.28
2019-03-18T01:35:49.929Z,99945.69
2019-03-18T01:36:56.889Z,99946.55
2019-03-18T01:38:03.829Z,99946.57
2019-03-18T01:39:09.659Z,99948.31
2019-03-18T01:40:16.363Z,99942.61
2019-03-18T01:41:22.789Z,99939.56
2019-03-18T01:42:28.507Z,99944.38
2019-03-18T01:43:37.089Z,99945.23
2019-03-18T01:44:43.036Z,99946.14
2019-03-18T01:45:48.782Z,99940.86
2019-03-18T01:46:54.853Z,99944.80
2019-03-18T01:48:00.760Z,99933.85
2019-03-18T01:49:06.419Z,99929.48
2019-03-18T01:50:15.969Z,99922.91
2019-03-18T01:51:21.682Z,99929.89
2019-03-18T01:52:28.800Z,99930.75
2019-03-18T01:53:35.750Z,99934.27
2019-03-18T01:54:41.674Z,99940.39
2019-03-18T01:55:47.870Z,99933.80
2019-03-18T01:56:54.990Z,99935.56
2019-03-18T01:58:00.940Z,99940.36
2019-03-18T01:59:08.227Z,99928.10
2019-03-18T02:00:16.741Z,99935.09
2019-03-18T02:01:23.971Z,99938.61
2019-03-18T02:02:30.870Z,99935.09
2019-03-18T02:03:37.030Z,99939.00
2019-03-18T02:04:43.152Z,99931.15
2019-03-18T02:05:51.312Z,99930.25
2019-03-18T02:06:58.490Z,99921.50
2019-03-18T02:08:04.961Z,99919.33
2019-03-18T02:09:11.360Z,99928.09
2019-03-18T02:10:17.864Z,99925.47
2019-03-18T02:11:24.670Z,99924.15
2019-03-18T02:12:30.348Z,99920.67
2019-03-18T02:13:36.117Z,99923.73
2019-03-18T02:14:41.843Z,99922.39
2019-03-18T02:15:53.505Z,99929.87
2019-03-18T02:16:56.406Z,99926.77
2019-03-18T02:18:02.161Z,99930.69
2019-03-18T02:19:08.011Z,99930.24
2019-03-18T02:20:19.610Z,99937.67
2019-03-18T02:21:24.473Z,99931.52
2019-03-18T02:22:30.490Z,99929.75
2019-03-18T02:23:36.201Z,99928.02
2019-03-18T02:24:42.912Z,99931.94
2019-03-18T02:25:49.983Z,99934.56
2019-03-18T02:26:56.291Z,99944.62
2019-03-18T02:28:04.631Z,99940.68
2019-03-18T02:29:11.072Z,99946.36
2019-03-18T02:30:20.414Z,99952.97
2019-03-18T02:31:27.094Z,99953.82
2019-03-18T02:32:33.341Z,99958.20
2019-03-18T02:33:39.311Z,99955.14
2019-03-18T02:34:46.051Z,99965.20
2019-03-18T02:35:52.551Z,99967.84
2019-03-18T02:36:59.308Z,99957.33
2019-03-18T02:38:06.192Z,99958.19
2019-03-18T02:39:12.766Z,99960.36
2019-03-18T02:40:19.071Z,99951.58
2019-03-18T02:41:25.428Z,99955.98
2019-03-18T02:42:31.983Z,99957.72
2019-03-18T02:43:37.812Z,99953.76
2019-03-18T02:44:43.689Z,99955.09
2019-03-18T02:45:49.503Z,99962.50
2019-03-18T02:46:56.800Z,99954.63
2019-03-18T02:48:02.543Z,99960.77
2019-03-18T02:49:08.392Z,99958.98
2019-03-18T02:50:15.172Z,99964.29
2019-03-18T02:51:20.984Z,99965.59
2019-03-18T02:52:26.827Z,99965.60
2019-03-18T02:53:32.698Z,99967.34
2019-03-18T02:54:40.860Z,99966.03
2019-03-18T02:55:47.188Z,99967.34
2019-03-18T02:56:54.313Z,99960.75
2019-03-18T02:58:00.737Z,99965.56
2019-03-18T02:59:07.105Z,99969.05
2019-03-18T03:00:15.104Z,99983.06
2019-03-18T03:01:21.572Z,99970.33
2019-03-18T03:02:27.483Z,99970.77
2019-03-18T03:03:37.025Z,99974.28
2019-03-18T03:04:43.457Z,99973.80
2019-03-18T03:05:49.576Z,99977.34
2019-03-18T03:06:55.915Z,99974.71
2019-03-18T03:08:03.244Z,99972.06
2019-03-18T03:09:10.784Z,99969.89
2019-03-18T03:10:17.474Z,99972.49
2019-03-18T03:11:23.747Z,99976.43
2019-03-18T03:12:30.151Z,99974.23
2019-03-18T03:13:35.894Z,99974.69
2019-03-18T03:14:41.635Z,99969.00
2019-03-18T03:15:47.524Z,99961.55
2019-03-18T03:16:53.456Z,99969.42
2019-03-18T03:17:59.161Z,99973.33
2019-03-18T03:19:04.975Z,99972.45
2019-03-18T03:20:11.920Z,99970.71
2019-03-18T03:21:17.654Z,99965.01
2019-03-18T03:22:23.463Z,99974.20
2019-03-18T03:23:29.449Z,99970.26
2019-03-18T03:24:35.730Z,99971.12
2019-03-18T03:25:42.454Z,99969.83
2019-03-18T03:26:48.364Z,99972.03
2019-03-18T03:27:55.366Z,99969.40
2019-03-18T03:29:02.822Z,99970.69
2019-03-18T03:30:18.718Z,99968.92
2019-03-18T03:31:25.835Z,99978.54
2019-03-18T03:32:33.480Z,99968.47
2019-03-18T03:33:39.257Z,99970.67
2019-03-18T03:34:46.038Z,99971.09
2019-03-18T03:35:53.093Z,99967.59
2019-03-18T03:36:59.012Z,99968.45
2019-03-18T03:38:05.920Z,99973.27
2019-03-18T03:39:13.284Z,99969.30
2019-03-18T03:40:20.045Z,99971.07
2019-03-18T03:41:26.997Z,99975.44
2019-03-18T03:42:33.889Z,99978.05
2019-03-18T03:43:41.706Z,99974.95
2019-03-18T03:44:47.505Z,99976.69
2019-03-18T03:45:53.361Z,99977.57
2019-03-18T03:47:00.079Z,99980.66
2019-03-18T03:48:07.666Z,99985.44
2019-03-18T03:49:13.369Z,99991.13
2019-03-18T03:50:19.221Z,99993.31
2019-03-18T03:51:25.160Z,99995.08
2019-03-18T03:52:31.016Z,99993.32
2019-03-18T03:53:36.955Z,99988.08
2019-03-18T03:54:43.620Z,99995.09
2019-03-18T03:55:50.727Z,99996.80
2019-03-18T03:56:56.837Z,100002.48
2019-03-18T03:58:03.326Z,99999.86
2019-03-18T03:59:10.598Z,100001.58
2019-03-18T04:00:17.737Z,100002.44
2019-03-18T04:01:24.405Z,99995.88
2019-03-18T04:02:31.514Z,100009.86
2019-03-18T04:03:38.988Z,100005.50
2019-03-18T04:04:45.937Z,100015.94
2019-03-18T04:05:51.986Z,100017.71
2019-03-18T04:06:58.491Z,100024.27
2019-03-18T04:08:05.694Z,100029.52
2019-03-18T04:09:12.338Z,100032.15
2019-03-18T04:10:18.990Z,100033.89
2019-03-18T04:11:26.750Z,100037.40
2019-03-18T04:12:32.702Z,100041.30
2019-03-18T04:13:38.535Z,100041.77
2019-03-18T04:14:44.229Z,100049.58
2019-03-18T04:15:51.750Z,100046.53
2019-03-18T04:17:02.222Z,100038.17
2019-03-18T04:18:05.086Z,100042.96
2019-03-18T04:19:10.950Z,100035.92
2019-03-18T04:20:17.655Z,100042.51
2019-03-18T04:21:23.553Z,100038.58
2019-03-18T04:22:29.383Z,100035.92
2019-03-18T04:23:35.200Z,100044.67
2019-03-18T04:24:42.235Z,100042.48
2019-03-18T04:25:49.118Z,100045.08
2019-03-18T04:26:56.286Z,100046.84
2019-03-18T04:28:02.282Z,100057.34
2019-03-18T04:29:08.873Z,100050.33
2019-03-18T04:30:17.325Z,100050.36
2019-03-18T04:31:23.277Z,100052.98
2019-03-18T04:32:30.477Z,100049.05
2019-03-18T04:33:39.195Z,100048.56
2019-03-18T04:34:44.407Z,100054.23
2019-03-18T04:35:52.396Z,100051.13
2019-03-18T04:36:59.318Z,100058.99
2019-03-18T04:38:05.560Z,100056.31
2019-03-18T04:39:12.345Z,100052.31
2019-03-18T04:40:33.327Z,100055.34
2019-03-18T04:41:49.418Z,100059.70
2019-03-18T04:42:55.875Z,100060.53
2019-03-18T04:44:02.169Z,100061.81
2019-03-18T04:45:09.504Z,100064.83
2019-03-18T04:46:15.326Z,100059.58
2019-03-18T04:47:21.237Z,100067.48
2019-03-18T04:48:28.044Z,100066.16
2019-03-18T04:49:34.966Z,100059.61
2019-03-18T04:50:40.704Z,100076.27
2019-03-18T04:51:46.455Z,100068.82
2019-03-18T04:52:53.916Z,100069.28
2019-03-18T04:53:59.836Z,100067.94
2019-03-18T04:55:07.458Z,100065.28
2019-03-18T04:56:13.995Z,100063.94
2019-03-18T04:57:19.756Z,100067.78
2019-03-18T04:58:26.596Z,100058.17
2019-03-18T04:59:33.397Z,100063.39
2019-03-18T05:00:39.247Z,100064.66
2019-03-18T05:01:46.019Z,100065.95
2019-03-18T05:02:52.723Z,100058.53
2019-03-18T05:03:58.903Z,100058.93
2019-03-18T05:05:05.606Z,100062.86
2019-03-18T05:06:12.806Z,100061.09
2019-03-18T05:07:19.047Z,100062.47
2019-03-18T05:08:25.314Z,100066.38
2019-03-18T05:09:32.477Z,100072.53
2019-03-18T05:10:39.267Z,100070.80
2019-03-18T05:11:45.898Z,100077.78
2019-03-18T05:12:53.868Z,100081.74
2019-03-18T05:14:00.126Z,100080.89
2019-03-18T05:15:08.346Z,100085.25
2019-03-18T05:16:14.107Z,100083.05
2019-03-18T05:17:26.585Z,100083.48
2019-03-18T05:18:28.467Z,100083.94
2019-03-18T05:19:34.452Z,100083.91
2019-03-18T05:20:40.227Z,100081.74
2019-03-18T05:21:47.199Z,100087.87
2019-03-18T05:22:52.950Z,100077.84
2019-03-18T05:23:58.976Z,100082.27
2019-03-18T05:25:06.916Z,100079.65
2019-03-18T05:26:13.167Z,100072.66
2019-03-18T05:27:19.877Z,100077.91
2019-03-18T05:28:26.107Z,100081.02
2019-03-18T05:29:32.468Z,100070.13
2019-03-18T05:30:39.630Z,100071.51
2019-03-18T05:31:46.009Z,100065.02
2019-03-18T05:32:52.077Z,100072.45
2019-03-18T05:33:58.434Z,100074.22
2019-03-18T05:35:05.624Z,100065.50
2019-03-18T05:36:11.406Z,100070.80
2019-03-18T05:37:44.155Z,100068.61
2019-03-18T05:38:50.883Z,100061.68
2019-03-18T05:40:13.478Z,100071.37
2019-03-18T05:41:31.900Z,100069.21
2019-03-18T05:42:55.384Z,100077.17
2019-03-18T05:43:56.364Z,100075.48
2019-03-18T05:45:04.792Z,100070.77
2019-03-18T05:46:10.961Z,100076.07
2019-03-18T05:47:20.585Z,100080.92
2019-03-18T05:48:29.954Z,100088.37
2019-03-18T05:49:39.072Z,100080.92
2019-03-18T05:50:51.787Z,100080.06
2019-03-18T05:52:02.664Z,100079.17
2019-03-18T05:53:18.515Z,100080.56
2019-03-18T05:54:29.910Z,100077.11
2019-03-18T05:55:46.771Z,100080.17
2019-03-18T05:57:07.474Z,100088.44
2019-03-18T05:58:22.383Z,100098.11
2019-03-18T05:59:29.143Z,100091.55
2019-03-18T06:00:41.605Z,100094.98
2019-03-18T06:02:01.222Z,100098.06
2019-03-18T06:03:10.686Z,100092.79
2019-03-18T06:04:17.540Z,100093.64
2019-03-18T06:05:25.047Z,100101.98
2019-03-18T06:06:32.976Z,100108.97
2019-03-18T06:07:40.312Z,100112.51
2019-03-18T06:08:46.734Z,100105.11
2019-03-18T06:09:55.724Z,100111.33
2019-03-18T06:11:02.744Z,100110.95
2019-03-18T06:12:09.572Z,100117.99
2019-03-18T06:13:16.405Z,100118.42
2019-03-18T06:14:22.586Z,100128.07
2019-03-18T06:15:28.363Z,100120.61
2019-03-18T06:16:34.366Z,100115.84
2019-03-18T06:17:51.627Z,100125.98
2019-03-18T06:18:48.165Z,100128.63
2019-03-18T06:19:54.382Z,100126.42
2019-03-18T06:21:00.425Z,100136.95
2019-03-18T06:22:06.375Z,100133.38
2019-03-18T06:23:13.870Z,100133.83
2019-03-18T06:24:20.515Z,100129.98
2019-03-18T06:25:28.214Z,100131.44
2019-03-18T06:26:34.822Z,100140.02
2019-03-18T06:27:41.532Z,100131.06
2019-03-18T06:28:47.905Z,100132.48
2019-03-18T06:29:55.434Z,100132.55
2019-03-18T06:31:01.320Z,100130.39
2019-03-18T06:32:08.262Z,100126.88
2019-03-18T06:33:15.173Z,100130.75
2019-03-18T06:34:20.939Z,100136.84
2019-03-18T06:35:27.133Z,100133.75
2019-03-18T06:36:51.466Z,100131.13
2019-03-18T06:38:01.736Z,100143.38
2019-03-18T06:39:08.659Z,100130.66
2019-03-18T06:40:16.543Z,100141.28
2019-03-18T06:41:23.347Z,100146.66
2019-03-18T06:42:31.876Z,100147.21
2019-03-18T06:43:37.968Z,100145.16
2019-03-18T06:44:43.857Z,100144.42
2019-03-18T06:45:49.854Z,100142.31
2019-03-18T06:46:55.853Z,100143.16
2019-03-18T06:48:05.340Z,100137.86
2019-03-18T06:49:10.543Z,100145.73
2019-03-18T06:50:16.766Z,100132.95
2019-03-18T06:51:23.133Z,100130.30
2019-03-18T06:52:29.376Z,100130.30
2019-03-18T06:53:35.316Z,100144.34
2019-03-18T06:54:44.969Z,100144.34
2019-03-18T06:55:51.286Z,100142.17
2019-03-18T06:56:57.776Z,100122.83
2019-03-18T06:58:05.538Z,100136.38
2019-03-18T06:59:11.784Z,100141.56
2019-03-18T07:00:18.153Z,100137.06
2019-03-18T07:01:25.159Z,100138.69
2019-03-18T07:02:34.012Z,100142.15
2019-03-18T07:03:41.913Z,100137.42
2019-03-18T07:04:47.797Z,100138.06
2019-03-18T07:05:54.010Z,100134.73
2019-03-18T07:07:01.612Z,100133.06
2019-03-18T07:08:07.590Z,100135.69
2019-03-18T07:09:13.633Z,100138.80
2019-03-18T07:10:19.576Z,100146.27
2019-03-18T07:11:25.519Z,100126.89
2019-03-18T07:12:31.876Z,100151.52
2019-03-18T07:13:38.097Z,100151.52
2019-03-18T07:14:44.284Z,100151.11
2019-03-18T07:15:50.213Z,100141.42
2019-03-18T07:16:56.078Z,100144.50
2019-03-18T07:18:03.510Z,100143.17
2019-03-18T07:19:09.544Z,100150.20
2019-03-18T07:20:16.161Z,100150.20
2019-03-18T07:21:22.252Z,100154.17
2019-03-18T07:22:28.196Z,100159.02
2019-03-18T07:23:34.501Z,100150.22
2019-03-18T07:24:40.305Z,100166.48
2019-03-18T07:25:46.517Z,100159.88
2019-03-18T07:26:52.594Z,100166.47
2019-03-18T07:27:58.617Z,100169.98
2019-03-18T07:29:04.547Z,100163.38
2019-03-18T07:30:13.170Z,100159.02
2019-03-18T07:31:19.133Z,100160.74
2019-03-18T07:32:25.083Z,100155.92
2019-03-18T07:33:31.126Z,100159.02
2019-03-18T07:34:37.783Z,100165.14
2019-03-18T07:35:43.855Z,100162.95
2019-03-18T07:36:49.949Z,100166.48
2019-03-18T07:37:56.007Z,100172.63
2019-03-18T07:39:02.125Z,100170.44
2019-03-18T07:40:12.641Z,100173.05
2019-03-18T07:41:18.844Z,100175.67
2019-03-18T07:42:25.886Z,100183.11
2019-03-18T07:43:32.638Z,100173.45
2019-03-18T07:44:40.418Z,100184.02
2019-03-18T07:45:47.371Z,100186.22
2019-03-18T07:46:54.829Z,100186.66
2019-03-18T07:48:01.170Z,100179.20
2019-03-18T07:49:07.709Z,100184.47
2019-03-18T07:50:17.806Z,100181.83
2019-03-18T07:51:23.936Z,100185.33
2019-03-18T07:52:29.942Z,100191.48
2019-03-18T07:53:35.809Z,100184.91
2019-03-18T07:54:42.706Z,100197.20
2019-03-18T07:55:48.758Z,100189.73
2019-03-18T07:56:54.948Z,100194.97
2019-03-18T07:58:02.170Z,100194.09
2019-03-18T07:59:10.089Z,100199.75
2019-03-18T08:00:19.748Z,100200.16
2019-03-18T08:01:26.580Z,100203.63
2019-03-18T08:02:32.638Z,100209.72
2019-03-18T08:03:39.496Z,100197.86
2019-03-18T08:04:46.539Z,100197.36
2019-03-18T08:05:53.236Z,100201.70
2019-03-18T08:07:01.091Z,100200.83
2019-03-18T08:08:07.476Z,100206.55
2019-03-18T08:09:14.365Z,100202.61
2019-03-18T08:10:22.269Z,100191.61
2019-03-18T08:11:28.869Z,100206.52
2019-03-18T08:12:35.336Z,100208.69
2019-03-18T08:13:42.180Z,100204.30
2019-03-18T08:14:48.000Z,100205.12
2019-03-18T08:15:53.909Z,100212.13
2019-03-18T08:16:59.939Z,100195.48
2019-03-18T08:18:05.810Z,100200.73
2019-03-18T08:19:11.631Z,100204.70
2019-03-18T08:20:17.549Z,100200.79
2019-03-18T08:21:25.999Z,100195.09
2019-03-18T08:22:31.900Z,100197.73
2019-03-18T08:23:37.716Z,100200.39
2019-03-18T08:24:44.019Z,100200.88
2019-03-18T08:25:49.969Z,100195.65
2019-03-18T08:26:56.489Z,100195.67
2019-03-18T08:28:03.047Z,100194.84
2019-03-18T08:29:08.843Z,100197.41
2019-03-18T08:30:19.990Z,100196.56
2019-03-18T08:31:26.979Z,100203.16
2019-03-18T08:32:32.860Z,100205.84
2019-03-18T08:33:39.298Z,100207.56
2019-03-18T08:34:45.517Z,100197.89
2019-03-18T08:35:51.980Z,100212.83
2019-03-18T08:36:58.872Z,100214.63
2019-03-18T08:38:05.989Z,100217.20
2019-03-18T08:39:11.892Z,100227.70
2019-03-18T08:40:20.579Z,100225.92
2019-03-18T08:41:26.881Z,100224.63
2019-03-18T08:42:32.837Z,100229.91
2019-03-18T08:43:40.270Z,100224.66
2019-03-18T08:44:46.398Z,100222.02
2019-03-18T08:45:52.171Z,100217.62
2019-03-18T08:46:58.188Z,100217.62
2019-03-18T08:48:05.033Z,100225.95
2019-03-18T08:49:12.761Z,100231.25
2019-03-18T08:50:19.783Z,100241.81
2019-03-18T08:51:25.560Z,100228.16
2019-03-18T08:52:31.768Z,100231.20
2019-03-18T08:53:37.620Z,100234.26
2019-03-18T08:54:43.371Z,100234.26
2019-03-18T08:55:49.631Z,100234.28
2019-03-18T08:56:57.170Z,100225.06
2019-03-18T08:58:04.121Z,100241.70
2019-03-18T08:59:10.759Z,100245.64
2019-03-18T09:00:20.371Z,100244.29
2019-03-18T09:01:26.502Z,100259.58
2019-03-18T09:02:32.981Z,100240.70
2019-03-18T09:03:39.061Z,100252.52
2019-03-18T09:04:45.649Z,100246.34
2019-03-18T09:05:52.227Z,100248.09
2019-03-18T09:06:58.511Z,100245.46
2019-03-18T09:08:05.278Z,100246.75
2019-03-18T09:09:11.811Z,100241.06
2019-03-18T09:10:20.289Z,100245.89
2019-03-18T09:11:28.560Z,100248.52
2019-03-18T09:12:34.291Z,100250.77
2019-03-18T09:13:40.941Z,100250.77
2019-03-18T09:15:08.272Z,100251.63
2019-03-18T09:16:14.111Z,100252.06
2019-03-18T09:17:20.259Z,100263.91
2019-03-18T09:18:27.711Z,100263.05
2019-03-18T09:19:33.772Z,100265.22
2019-03-18T09:20:40.066Z,100258.61
2019-03-18T09:21:46.119Z,100266.05
2019-03-18T09:22:52.141Z,100268.25
2019-03-18T09:23:58.515Z,100262.99
2019-03-18T09:25:05.492Z,100267.03
2019-03-18T09:26:12.429Z,100256.04
2019-03-18T09:27:18.703Z,100254.66
2019-03-18T09:28:24.869Z,100259.46
2019-03-18T09:29:31.303Z,100260.80
2019-03-18T09:30:37.462Z,100260.36
2019-03-18T09:31:43.382Z,100259.05
2019-03-18T09:32:51.013Z,100261.25
2019-03-18T09:33:57.853Z,100253.91
2019-03-18T09:35:03.794Z,100255.72
2019-03-18T09:36:10.072Z,100255.34
2019-03-18T09:37:18.217Z,100257.14
2019-03-18T09:38:24.212Z,100258.98
2019-03-18T09:39:30.672Z,100256.41
2019-03-18T09:40:40.364Z,100261.69
2019-03-18T09:41:46.423Z,100253.83
2019-03-18T09:42:52.779Z,100262.25
2019-03-18T09:44:00.109Z,100255.67
2019-03-18T09:45:11.173Z,100264.45
2019-03-18T09:46:18.663Z,100268.39
2019-03-18T09:47:24.773Z,100254.31
2019-03-18T09:48:30.603Z,100264.00
2019-03-18T09:49:37.363Z,100264.92
2019-03-18T09:50:43.413Z,100251.27
2019-03-18T09:51:49.351Z,100264.00
2019-03-18T09:52:55.413Z,100255.18
2019-03-18T09:54:01.557Z,100265.73
2019-03-18T09:55:09.822Z,100260.87
2019-03-18T09:56:15.903Z,100259.53
2019-03-18T09:57:26.239Z,100268.73
2019-03-18T09:58:29.857Z,100277.95
2019-03-18T09:59:36.590Z,100274.88
2019-03-18T10:00:42.511Z,100280.58
2019-03-18T10:01:48.953Z,100286.27
2019-03-18T10:02:55.394Z,100285.39
2019-03-18T10:04:01.435Z,100279.25
2019-03-18T10:05:08.224Z,100289.78
2019-03-18T10:06:15.013Z,100296.81
2019-03-18T10:07:20.903Z,100284.10
2019-03-18T10:08:28.354Z,100297.30
2019-03-18T10:09:34.986Z,100294.30
2019-03-18T10:10:41.450Z,100292.14
2019-03-18T10:11:48.224Z,100286.03
2019-03-18T10:12:54.422Z,100293.97
2019-03-18T10:14:02.154Z,100287.83
2019-03-18T10:15:14.538Z,100284.28
2019-03-18T10:16:21.514Z,100293.52
2019-03-18T10:17:27.610Z,100288.27
2019-03-18T10:18:33.473Z,100287.42
2019-03-18T10:19:39.333Z,100290.95
2019-03-18T10:20:45.261Z,100281.28
2019-03-18T10:21:51.191Z,100281.72
2019-03-18T10:22:57.336Z,100293.16
2019-03-18T10:24:03.211Z,100286.11
2019-03-18T10:25:09.697Z,100290.94
2019-03-18T10:26:17.391Z,100295.34
2019-03-18T10:27:23.324Z,100295.80
2019-03-18T10:28:29.351Z,100299.31
2019-03-18T10:29:35.221Z,100298.85
2019-03-18T10:30:42.741Z,100293.55
2019-03-18T10:31:48.778Z,100293.09
2019-03-18T10:32:54.621Z,100291.34
2019-03-18T10:34:02.199Z,100289.14
2019-03-18T10:35:09.784Z,100297.95
2019-03-18T10:36:17.058Z,100289.19
2019-03-18T10:37:25.964Z,100290.94
2019-03-18T10:38:32.415Z,100298.87
2019-03-18T10:39:38.631Z,100301.52
2019-03-18T10:40:44.985Z,100302.84
2019-03-18T10:41:51.381Z,100299.33
2019-03-18T10:42:59.473Z,100294.03
2019-03-18T10:44:06.665Z,100297.52
2019-03-18T10:45:16.465Z,100292.25
2019-03-18T10:46:26.188Z,100300.16
2019-03-18T10:47:31.686Z,100296.62
2019-03-18T10:48:37.484Z,100304.97
2019-03-18T10:50:04.573Z,100295.72
2019-03-18T10:51:10.555Z,100299.22
2019-03-18T10:52:18.093Z,100301.45
2019-03-18T10:53:23.893Z,100305.88
2019-03-18T10:54:32.247Z,100321.72
2019-03-18T10:55:38.281Z,100308.09
2019-03-18T10:56:44.361Z,100313.78
2019-03-18T10:57:51.436Z,100324.32
2019-03-18T10:58:58.205Z,100315.05
2019-03-18T11:00:11.313Z,100311.95
2019-03-18T11:01:18.804Z,100313.75
2019-03-18T11:02:25.783Z,100322.59
2019-03-18T11:03:31.972Z,100316.92
2019-03-18T11:04:39.305Z,100316.06
2019-03-18T11:05:45.928Z,100319.19
2019-03-18T11:06:52.307Z,100313.94
2019-03-18T11:07:59.285Z,100320.98
2019-03-18T11:09:07.514Z,100327.59
2019-03-18T11:10:17.383Z,100326.25
2019-03-18T11:11:25.467Z,100327.99
2019-03-18T11:12:33.058Z,100328.89
2019-03-18T11:13:39.545Z,100324.93
2019-03-18T11:14:45.831Z,100335.50
2019-03-18T11:15:51.951Z,100328.48
2019-03-18T11:16:57.913Z,100335.97
2019-03-18T11:18:03.896Z,100329.34
2019-03-18T11:19:09.904Z,100318.34
2019-03-18T11:20:17.586Z,100322.73
2019-03-18T11:21:25.489Z,100321.44
2019-03-18T11:22:31.525Z,100321.87
2019-03-18T11:23:38.006Z,100319.67
2019-03-18T11:24:43.763Z,100315.70
2019-03-18T11:25:49.596Z,100332.44
2019-03-18T11:26:55.573Z,100325.39
2019-03-18T11:28:01.446Z,100331.12
2019-03-18T11:29:08.876Z,100325.39
2019-03-18T11:30:19.358Z,100338.59
2019-03-18T11:31:25.914Z,100342.55
2019-03-18T11:32:32.016Z,100341.19
2019-03-18T11:33:38.138Z,100343.39
2019-03-18T11:34:45.521Z,100341.21
2019-03-18T11:35:53.478Z,100341.63
2019-03-18T11:36:59.966Z,100343.84
2019-03-18T11:38:05.997Z,100354.34
2019-03-18T11:39:12.252Z,100348.19
2019-03-18T11:40:20.719Z,100347.28
2019-03-18T11:41:27.234Z,100355.23
2019-03-18T11:42:33.405Z,100346.04
2019-03-18T11:43:39.811Z,100352.20
2019-03-18T11:44:46.393Z,100348.25
2019-03-18T11:45:52.327Z,100344.73
2019-03-18T11:46:58.239Z,100346.08
2019-03-18T11:48:04.269Z,100348.73
2019-03-18T11:49:10.270Z,100352.23
2019-03-18T11:50:18.666Z,100335.06
2019-03-18T11:51:24.853Z,100339.91
2019-03-18T11:52:32.848Z,100339.47
2019-03-18T11:53:39.846Z,100333.73
2019-03-18T11:54:45.907Z,100336.37
2019-03-18T11:55:52.733Z,100339.88
2019-03-18T11:56:59.207Z,100345.61
2019-03-18T11:58:05.187Z,100331.06
2019-03-18T11:59:11.228Z,100343.31
2019-03-18T12:00:22.967Z,100340.23
2019-03-18T12:01:29.408Z,100341.11
2019-03-18T12:02:36.914Z,100345.94
2019-03-18T12:03:45.328Z,100346.82
2019-03-18T12:04:52.071Z,100343.73
2019-03-18T12:05:58.157Z,100347.25
2019-03-18T12:07:05.306Z,100332.73
2019-03-18T12:08:12.528Z,100344.56
2019-03-18T12:09:18.694Z,100350.27
2019-03-18T12:10:25.876Z,100351.61
2019-03-18T12:11:32.868Z,100351.19
2019-03-18T12:12:39.549Z,100351.64
2019-03-18T12:13:47.489Z,100347.70
2019-03-18T12:14:53.587Z,100349.48
2019-03-18T12:15:59.970Z,100345.58
2019-03-18T12:17:06.627Z,100353.52
2019-03-18T12:18:13.227Z,100348.25
2019-03-18T12:19:19.308Z,100356.19
2019-03-18T12:20:25.924Z,100350.48
2019-03-18T12:21:32.291Z,100346.50
2019-03-18T12:22:38.787Z,100352.68
2019-03-18T12:23:44.829Z,100350.92
2019-03-18T12:24:51.247Z,100349.16
2019-03-18T12:25:57.608Z,100355.72
2019-03-18T12:27:03.887Z,100346.48
2019-03-18T12:28:11.027Z,100357.88
2019-03-18T12:29:17.821Z,100358.28
2019-03-18T12:30:29.351Z,100363.56
2019-03-18T12:31:35.595Z,100365.30
2019-03-18T12:32:41.595Z,100373.19
2019-03-18T12:33:47.575Z,100367.05
2019-03-18T12:34:53.616Z,100373.19
2019-03-18T12:35:59.703Z,100367.48
2019-03-18T12:37:05.797Z,100366.59
2019-03-18T12:38:11.736Z,100366.57
2019-03-18T12:39:18.575Z,100363.88
2019-03-18T12:40:24.724Z,100365.21
2019-03-18T12:41:30.755Z,100366.96
2019-03-18T12:42:39.395Z,100372.21
2019-03-18T12:43:45.569Z,100373.98
2019-03-18T12:44:52.348Z,100373.52
2019-03-18T12:45:59.116Z,100370.02
2019-03-18T12:47:05.197Z,100368.28
2019-03-18T12:48:11.351Z,100372.25
2019-03-18T12:49:17.676Z,100367.45
2019-03-18T12:50:43.197Z,100361.33
2019-03-18T12:51:32.556Z,100352.98